• Join FlightAware (Why Join?)
  • Login
  • US Flag 
04:10PM EDT


 

Airport Tracker/Info


-or-


 

Live Flight TrackerFlight Track Log ✈ SWA378 ✈ 02-Jul-2013 ✈ KSJC - KONT

Flight Track Log - Related Links

Times and Time Zones

All times are in EDT time to prevent confusion due to time zone crossing. See the SWA378 flight status page for this flight to view local times or setup timezone preferences in your user account.

Time Position Orientation Groundspeed Altitude Reporting Facility
EDT Latitude Longitude Course Direction KTS MPH feet Rate Location/Type
11:09AM 37.4000 -121.9667 60° Northeast 192 221 2,000  Level Northern Cal TRACON
11:11AM 37.4297 -121.9008 60° Northeast 238 274 5,000 1,860 Climbing Oakland Center
11:12AM 37.3758 -121.8467 141° Southeast 247 284 7,100 2,700 Climbing Oakland Center
11:13AM 37.3172 -121.7822 139° Southeast 246 283 10,500 2,820 Climbing Oakland Center
11:14AM 37.2494 -121.7017 137° Southeast 318 366 13,000 3,060 Climbing Oakland Center
11:15AM 37.1794 -121.6189 137° Southeast 341 392 16,800 3,300 Climbing Oakland Center
11:16AM 37.1094 -121.5386 138° Southeast 342 394 19,800 2,760 Climbing Oakland Center
11:17AM 37.0283 -121.4531 140° Southeast 357 411 22,500 2,580 Climbing Oakland Center
11:18AM 36.9472 -121.3625 138° Southeast 383 441 25,100 2,400 Climbing Oakland Center
11:19AM 36.8644 -121.2728 139° Southeast 392 451 27,500 2,100 Climbing Oakland Center
11:20AM 36.7822 -121.1814 138° Southeast 398 458 29,500 1,980 Climbing Oakland Center
11:21AM 36.6956 -121.0881 139° Southeast 405 466 31,600 2,040 Climbing Oakland Center
11:22AM 36.6103 -120.9972 139° Southeast 404 465 33,800 1,980 Climbing Oakland Center
11:23AM 36.5264 -120.9075 139° Southeast 398 458 35,700 1,560 Climbing Oakland Center
11:24AM 36.4250 -120.8011 140° Southeast 397 457 37,000 600 Climbing Oakland Center
11:25AM 36.3475 -120.7044 135° Southeast 395 455 37,000  Level Oakland Center
11:26AM 36.2808 -120.5928 127° Southeast 400 460 37,000  Level Oakland Center
11:27AM 36.2125 -120.4836 128° Southeast 401 461 37,000  Level Oakland Center
11:28AM 36.1439 -120.3761 128° Southeast 398 458 37,000  Level Oakland Center
11:29AM 36.0758 -120.2669 128° Southeast 400 460 37,000  Level Oakland Center
11:30AM 36.0069 -120.1558 127° Southeast 404 465 37,000  Level Oakland Center
11:31AM 35.9375 -120.0472 128° Southeast 402 463 37,000  Level Oakland Center
11:32AM 35.8683 -119.9392 128° Southeast 401 461 37,000  Level Oakland Center
11:33AM 35.7981 -119.8311 129° Southeast 402 463 37,000  Level Oakland Center
11:34AM 35.7144 -119.7017 128° Southeast 402 463 37,000  Level Oakland Center
11:35AM 35.6442 -119.5942 129° Southeast 403 464 37,000  Level Oakland Center
11:36AM 35.5758 -119.4864 128° Southeast 401 461 37,000 -60 Level Oakland Center
11:37AM 35.5039 -119.3781 129° Southeast 404 465 36,900 -540 Descending Oakland Center
11:38AM 35.4358 -119.2725 128° Southeast 400 460 35,900 -900 Descending Oakland Center
11:39AM 35.3678 -119.1694 129° Southeast 395 455 35,100 -480 Descending Oakland Center
11:40AM 35.2994 -119.0658 129° Southeast 392 451 35,000 -60 Descending Oakland Center
11:42AM 35.2292 -118.9625 130° Southeast 392 451 35,000  Level Oakland Center
11:43AM 35.1497 -118.8358 127° Southeast 392 451 35,000  Level Oakland Center
11:44AM 35.0814 -118.7319 129° Southeast 391 450 35,000 -540 Level Oakland Center
11:45AM 35.0103 -118.6267 129° Southeast 395 455 33,900 -1,920 Descending Oakland Center
11:46AM 34.9261 -118.5025 130° Southeast 398 458 30,600 -2,160 Descending Los Angeles Center
11:47AM 34.8494 -118.3886 129° Southeast 382 440 28,900 -1,320 Descending Los Angeles Center
11:48AM 34.7850 -118.2933 129° Southeast 369 425 27,900 -1,320 Descending Los Angeles Center
11:49AM 34.7197 -118.1958 129° Southeast 374 430 26,200 -2,040 Descending Los Angeles Center
11:50AM 34.6561 -118.1022 130° Southeast 365 420 23,800 -1,740 Descending Los Angeles Center
11:51AM 34.6044 -118.0078 124° Southeast 339 390 22,700 -1,260 Descending Los Angeles Center
11:52AM 34.5519 -117.8925 119° Southeast 329 379 21,200 -1,560 Descending Los Angeles Center
11:53AM 34.5150 -117.8111 119° Southeast 343 395 19,500 -2,040 Descending Los Angeles Center
11:54AM 34.4617 -117.6942 119° Southeast 331 381 17,100 -2,160 Descending Los Angeles Center
11:55AM 34.4181 -117.6022 120° Southeast 320 368 15,100 -1,920 Descending Los Angeles Center
11:56AM 34.3739 -117.5019 118° Southeast 296 341 13,200 -1,980 Descending Los Angeles Center
11:57AM 34.3342 -117.4169 119° Southeast 289 333 11,100 -2,040 Descending Los Angeles Center
11:58AM 34.2900 -117.3378 124° Southeast 288 331 9,000 -1,860 Descending Los Angeles Center
11:59AM 34.2144 -117.3314 176° South 272 313 7,300 -1,560 Descending Los Angeles Center
12:00PM 34.1617 -117.3447 192° South 245 282 5,800 -2,040 Descending Los Angeles Center
12:01PM 34.1167 -117.4000 225° Southwest 209 241 3,800 -1,680 Descending Southern California TRACON
12:02PM 34.0667 -117.4333 209° Southwest 181 208 2,900 -720 Descending Southern California TRACON
12:03PM 34.0500 -117.4833 248° West 159 183 2,400 -600 Descending Southern California TRACON
12:04PM 34.0500 -117.5333 270° West 138 159 1,700 -720 Descending Southern California TRACON
12:08PM 34.0500 -117.6000 North  Level FlightAware Approximate